createdAt,value
2023-03-06T00:01:18.576Z,77.57
2023-03-06T00:03:30.498Z,77.53
2023-03-06T00:05:42.456Z,77.63
2023-03-06T00:07:54.616Z,77.14
2023-03-06T00:10:06.510Z,77.70
2023-03-06T00:12:18.302Z,77.70
2023-03-06T00:14:30.395Z,77.59
2023-03-06T00:16:42.187Z,77.73
2023-03-06T00:18:53.772Z,77.95
2023-03-06T00:21:09.061Z,77.83
2023-03-06T00:23:21.139Z,77.66
2023-03-06T00:25:36.920Z,77.89
2023-03-06T00:27:49.328Z,77.81
2023-03-06T00:30:02.038Z,77.70
2023-03-06T00:32:13.969Z,77.48
2023-03-06T00:34:26.232Z,77.50
2023-03-06T00:36:38.434Z,77.88
2023-03-06T00:38:50.732Z,78.06
2023-03-06T00:41:10.798Z,77.67
2023-03-06T00:43:22.715Z,77.96
2023-03-06T00:45:34.554Z,78.03
2023-03-06T00:47:46.810Z,78.07
2023-03-06T00:50:00.226Z,78.10
2023-03-06T00:52:12.899Z,78.10
2023-03-06T00:54:24.525Z,77.93
2023-03-06T00:56:36.211Z,78.22
2023-03-06T00:58:47.900Z,78.21
2023-03-06T01:00:59.746Z,78.77
2023-03-06T01:03:11.989Z,78.67
2023-03-06T01:05:25.050Z,78.46
2023-03-06T01:07:37.205Z,78.89
2023-03-06T01:09:49.406Z,78.88
2023-03-06T01:12:01.652Z,79.16
2023-03-06T01:14:13.394Z,79.00
2023-03-06T01:16:25.258Z,79.18
2023-03-06T01:18:38.508Z,79.12
2023-03-06T01:20:50.197Z,79.55
2023-03-06T01:23:01.883Z,78.94
2023-03-06T01:25:14.101Z,79.25
2023-03-06T01:27:26.289Z,79.38
2023-03-06T01:29:38.275Z,79.55
2023-03-06T01:31:50.126Z,79.89
2023-03-06T01:34:02.720Z,79.70
2023-03-06T01:36:14.882Z,79.85
2023-03-06T01:38:27.187Z,79.71
2023-03-06T01:40:39.385Z,80.02
2023-03-06T01:42:51.586Z,80.26
2023-03-06T01:45:35.739Z,79.77
2023-03-06T01:47:47.625Z,80.27
2023-03-06T01:50:01.982Z,80.08
2023-03-06T01:52:17.419Z,80.09
2023-03-06T01:54:33.162Z,80.62
2023-03-06T01:56:48.866Z,80.28
2023-03-06T01:59:01.728Z,80.99
2023-03-06T02:01:14.814Z,80.98
2023-03-06T02:03:28.583Z,80.73
2023-03-06T02:05:42.318Z,80.97
2023-03-06T02:07:55.236Z,80.71
2023-03-06T02:10:08.051Z,81.40
2023-03-06T02:12:21.900Z,81.04
2023-03-06T02:14:35.116Z,81.44
2023-03-06T02:16:48.161Z,81.38
2023-03-06T02:19:02.586Z,81.77
2023-03-06T02:21:24.819Z,81.14
2023-03-06T02:24:00.077Z,81.13
2023-03-06T02:26:15.639Z,81.68
2023-03-06T02:28:28.160Z,81.58
2023-03-06T02:30:42.051Z,81.87
2023-03-06T02:32:54.289Z,81.37
2023-03-06T02:35:07.309Z,81.63
2023-03-06T02:37:19.708Z,81.46
2023-03-06T02:39:36.108Z,81.69
2023-03-06T02:41:48.413Z,81.76
2023-03-06T02:44:00.608Z,81.36
2023-03-06T02:46:14.081Z,81.45
2023-03-06T02:48:26.132Z,82.19
2023-03-06T02:50:37.770Z,81.84
2023-03-06T02:52:49.503Z,82.12
2023-03-06T02:55:01.191Z,81.97
2023-03-06T02:57:13.388Z,82.38
2023-03-06T02:59:26.512Z,81.99
2023-03-06T03:01:39.129Z,82.41
2023-03-06T03:03:51.014Z,82.31
2023-03-06T03:06:07.305Z,82.49
2023-03-06T03:08:19.606Z,82.08
2023-03-06T03:10:32.625Z,82.35
2023-03-06T03:12:44.828Z,82.36
2023-03-06T03:14:57.641Z,82.26
2023-03-06T03:17:09.942Z,82.70
2023-03-06T03:19:21.587Z,82.41
2023-03-06T03:21:33.521Z,82.38
2023-03-06T03:23:45.423Z,82.77
2023-03-06T03:26:06.432Z,82.58
2023-03-06T03:28:19.133Z,82.54
2023-03-06T03:30:31.441Z,82.80
2023-03-06T03:32:43.736Z,82.81
2023-03-06T03:34:56.553Z,83.21
2023-03-06T03:37:09.469Z,83.02
2023-03-06T03:39:23.212Z,83.23
2023-03-06T03:41:35.212Z,83.06
2023-03-06T03:43:49.556Z,82.92
2023-03-06T03:46:01.237Z,83.20
2023-03-06T03:48:13.655Z,83.14
2023-03-06T03:50:26.046Z,82.93
2023-03-06T03:52:38.658Z,83.18
2023-03-06T03:54:50.854Z,83.02
2023-03-06T03:57:03.768Z,83.04
2023-03-06T03:59:18.425Z,83.20
2023-03-06T04:01:46.147Z,83.17
2023-03-06T04:03:58.291Z,83.23
2023-03-06T04:06:10.588Z,83.13
2023-03-06T04:08:22.692Z,83.70
2023-03-06T04:10:34.678Z,83.68
2023-03-06T04:12:46.776Z,84.12
2023-03-06T04:14:59.233Z,83.82
2023-03-06T04:17:13.539Z,84.03
2023-03-06T04:19:25.529Z,83.93
2023-03-06T04:21:37.688Z,84.23
2023-03-06T04:23:50.235Z,84.35
2023-03-06T04:26:02.124Z,84.32
2023-03-06T04:28:14.842Z,84.58
2023-03-06T04:30:26.933Z,84.68
2023-03-06T04:32:39.059Z,84.51
2023-03-06T04:34:51.237Z,84.73
2023-03-06T04:37:03.126Z,84.67
2023-03-06T04:39:15.528Z,84.88
2023-03-06T04:41:27.728Z,84.98
2023-03-06T04:43:39.726Z,84.73
2023-03-06T04:45:51.342Z,84.87
2023-03-06T04:48:04.122Z,84.99
2023-03-06T04:50:18.268Z,84.79
2023-03-06T04:52:30.469Z,84.70
2023-03-06T04:54:43.286Z,84.83
2023-03-06T04:56:55.275Z,85.01
2023-03-06T04:59:07.395Z,85.08
2023-03-06T05:01:19.553Z,85.18
2023-03-06T05:03:31.569Z,84.95
2023-03-06T05:05:48.374Z,85.07
2023-03-06T05:08:02.207Z,85.09
2023-03-06T05:10:16.648Z,85.17
2023-03-06T05:12:28.352Z,84.92
2023-03-06T05:14:40.650Z,84.71
2023-03-06T05:16:52.336Z,84.85
2023-03-06T05:19:04.447Z,85.07
2023-03-06T05:21:16.123Z,84.89
2023-03-06T05:23:29.675Z,84.68
2023-03-06T05:25:42.269Z,84.81
2023-03-06T05:27:54.578Z,84.68
2023-03-06T05:30:08.622Z,85.41
2023-03-06T05:32:21.232Z,84.87
2023-03-06T05:34:33.106Z,84.86
2023-03-06T05:36:44.692Z,84.59
2023-03-06T05:38:56.712Z,84.69
2023-03-06T05:41:13.026Z,84.25
2023-03-06T05:43:24.703Z,84.22
2023-03-06T05:45:36.718Z,84.81
2023-03-06T05:47:48.666Z,84.55
2023-03-06T05:50:00.353Z,84.47
2023-03-06T05:52:13.474Z,83.85
2023-03-06T05:54:26.409Z,84.23
2023-03-06T05:56:38.286Z,84.43
2023-03-06T05:58:51.200Z,84.21
2023-03-06T06:01:18.856Z,84.26
2023-03-06T06:03:30.476Z,84.12
2023-03-06T06:05:42.848Z,84.44
2023-03-06T06:07:54.738Z,84.34
2023-03-06T06:10:07.963Z,84.36
2023-03-06T06:12:19.959Z,84.66
2023-03-06T06:14:34.593Z,84.58
2023-03-06T06:16:46.205Z,84.91
2023-03-06T06:18:58.518Z,84.27
2023-03-06T06:21:12.544Z,84.95
2023-03-06T06:23:24.745Z,84.52
2023-03-06T06:25:37.668Z,84.38
2023-03-06T06:27:49.344Z,84.45
2023-03-06T06:30:01.344Z,84.14
2023-03-06T06:32:13.248Z,84.33
2023-03-06T06:34:25.739Z,84.39
2023-03-06T06:36:38.458Z,84.31
2023-03-06T06:38:50.591Z,84.02
2023-03-06T06:41:33.338Z,84.63
2023-03-06T06:43:36.146Z,84.16
2023-03-06T06:45:49.583Z,84.36
2023-03-06T06:48:02.241Z,84.05
2023-03-06T06:50:14.699Z,83.69
2023-03-06T06:52:26.578Z,83.47
2023-03-06T06:54:38.995Z,82.97
2023-03-06T06:56:51.390Z,83.31
2023-03-06T06:59:16.122Z,83.05
2023-03-06T07:01:29.618Z,82.82
2023-03-06T07:03:41.927Z,82.53
2023-03-06T07:05:56.177Z,82.83
2023-03-06T07:08:07.849Z,83.00
2023-03-06T07:10:21.009Z,82.91
2023-03-06T07:12:35.273Z,83.20
2023-03-06T07:14:47.056Z,82.66
2023-03-06T07:16:59.005Z,83.33
2023-03-06T07:19:11.406Z,83.21
2023-03-06T07:21:23.095Z,83.38
2023-03-06T07:23:35.541Z,83.27
2023-03-06T07:25:47.187Z,83.22
2023-03-06T07:27:59.019Z,82.68
2023-03-06T07:30:13.689Z,82.65
2023-03-06T07:32:25.673Z,82.50
2023-03-06T07:34:38.137Z,82.66
2023-03-06T07:36:51.156Z,82.29
2023-03-06T07:39:03.150Z,82.37
2023-03-06T07:41:16.615Z,82.84
2023-03-06T07:43:28.267Z,82.90
2023-03-06T07:45:47.042Z,82.82
2023-03-06T07:47:58.916Z,82.32
2023-03-06T07:50:11.730Z,82.67
2023-03-06T07:52:24.131Z,82.03
2023-03-06T07:54:35.922Z,82.27
2023-03-06T07:56:50.989Z,82.81
2023-03-06T07:59:03.509Z,82.39
2023-03-06T08:01:23.653Z,82.33
2023-03-06T08:03:36.251Z,82.62
2023-03-06T08:05:47.890Z,82.22
2023-03-06T08:07:59.472Z,82.32
2023-03-06T08:10:16.064Z,82.04
2023-03-06T08:12:27.963Z,81.64
2023-03-06T08:14:39.640Z,82.12
2023-03-06T08:16:52.045Z,82.22
2023-03-06T08:19:03.838Z,81.80
2023-03-06T08:21:21.684Z,81.99
2023-03-06T08:23:34.627Z,82.21
2023-03-06T08:25:46.578Z,82.32
2023-03-06T08:27:58.266Z,82.20
2023-03-06T08:30:10.716Z,81.61
2023-03-06T08:32:22.672Z,82.40
2023-03-06T08:34:34.759Z,82.37
2023-03-06T08:36:46.398Z,81.85
2023-03-06T08:38:58.750Z,81.81
2023-03-06T08:41:10.539Z,82.25
2023-03-06T08:43:22.991Z,82.18
2023-03-06T08:45:34.895Z,82.00
2023-03-06T08:47:46.525Z,81.77
2023-03-06T08:50:00.576Z,81.79
2023-03-06T08:52:12.688Z,81.25
2023-03-06T08:54:24.964Z,81.61
2023-03-06T08:56:36.649Z,82.03
2023-03-06T08:58:48.855Z,81.79
2023-03-06T09:01:00.660Z,81.60
2023-03-06T09:03:12.738Z,81.32
2023-03-06T09:05:25.261Z,80.96
2023-03-06T09:07:37.145Z,81.56
2023-03-06T09:09:49.135Z,81.42
2023-03-06T09:12:04.403Z,81.38
2023-03-06T09:14:16.703Z,81.38
2023-03-06T09:16:28.706Z,81.45
2023-03-06T09:18:41.211Z,80.30
2023-03-06T09:20:52.790Z,81.10
2023-03-06T09:23:04.788Z,81.25
2023-03-06T09:25:20.586Z,81.02
2023-03-06T09:27:32.379Z,80.82
2023-03-06T09:29:44.052Z,81.26
2023-03-06T09:31:55.846Z,82.28
2023-03-06T09:34:07.946Z,82.23
2023-03-06T09:36:22.915Z,81.70
2023-03-06T09:38:35.306Z,81.65
2023-03-06T09:40:50.068Z,81.67
2023-03-06T09:43:02.266Z,81.28
2023-03-06T09:45:14.567Z,80.92
2023-03-06T09:48:03.853Z,81.22
2023-03-06T09:50:35.694Z,80.91
2023-03-06T09:53:06.382Z,81.68
2023-03-06T09:55:22.207Z,80.90
2023-03-06T09:57:42.653Z,80.67
2023-03-06T09:59:57.842Z,80.49
2023-03-06T10:02:20.694Z,80.80
2023-03-06T10:04:35.517Z,80.76
2023-03-06T10:06:51.841Z,80.51
2023-03-06T10:09:14.631Z,80.45
2023-03-06T10:11:36.043Z,80.36
2023-03-06T10:13:57.662Z,80.00
2023-03-06T10:16:22.668Z,79.98
2023-03-06T10:18:38.551Z,80.00
2023-03-06T10:21:19.497Z,79.58
2023-03-06T10:23:40.944Z,78.90
2023-03-06T10:26:13.448Z,79.03
2023-03-06T10:28:47.219Z,78.82
2023-03-06T10:31:11.106Z,78.74
2023-03-06T10:33:48.902Z,77.91
2023-03-06T10:36:00.623Z,78.15
2023-03-06T10:38:22.378Z,78.21
2023-03-06T10:40:47.714Z,77.97
2023-03-06T10:43:11.070Z,77.77
2023-03-06T10:45:23.528Z,77.88
2023-03-06T10:47:36.970Z,77.61
2023-03-06T10:49:59.924Z,77.68
2023-03-06T10:52:15.034Z,78.56
2023-03-06T10:54:31.597Z,78.99
2023-03-06T10:56:51.553Z,78.78
2023-03-06T10:59:17.195Z,78.71
2023-03-06T11:01:30.827Z,78.83
2023-03-06T11:03:42.447Z,78.87
2023-03-06T11:06:37.245Z,79.13
2023-03-06T11:08:51.256Z,78.82
2023-03-06T11:11:08.707Z,78.90
2023-03-06T11:13:26.203Z,79.17
2023-03-06T11:15:38.533Z,79.09
2023-03-06T11:17:52.580Z,79.02
2023-03-06T11:20:50.904Z,79.10
2023-03-06T11:23:14.020Z,78.98
2023-03-06T11:25:32.595Z,78.99
2023-03-06T11:27:48.101Z,79.27
2023-03-06T11:30:04.028Z,79.02
2023-03-06T11:32:29.169Z,79.03
2023-03-06T11:34:59.254Z,78.63
2023-03-06T11:37:35.794Z,78.43
2023-03-06T11:40:06.651Z,78.16
2023-03-06T11:42:39.784Z,78.29
2023-03-06T11:45:03.140Z,78.25
2023-03-06T11:47:39.322Z,77.80
2023-03-06T11:50:34.981Z,77.97
2023-03-06T11:52:58.709Z,77.85
2023-03-06T11:55:16.714Z,78.00
2023-03-06T11:57:46.501Z,77.80
2023-03-06T12:00:18.007Z,77.52
2023-03-06T12:02:34.871Z,77.82
2023-03-06T12:05:07.655Z,77.89
2023-03-06T12:07:34.107Z,77.90
2023-03-06T12:10:01.336Z,78.24
2023-03-06T12:12:44.668Z,78.08
2023-03-06T12:15:21.743Z,77.98
2023-03-06T12:17:58.856Z,78.18
2023-03-06T12:20:34.579Z,78.00
2023-03-06T12:22:57.688Z,77.98
2023-03-06T12:25:27.138Z,77.90
2023-03-06T12:28:06.350Z,77.86
2023-03-06T12:30:52.294Z,78.07
2023-03-06T12:33:31.511Z,78.04
2023-03-06T12:36:11.647Z,77.78
2023-03-06T12:38:26.612Z,77.93
2023-03-06T12:40:48.313Z,78.27
2023-03-06T12:43:19.990Z,78.19
2023-03-06T12:45:37.193Z,78.48
2023-03-06T12:47:52.490Z,78.56
2023-03-06T12:50:17.313Z,78.34
2023-03-06T12:52:31.643Z,78.00
2023-03-06T12:54:43.528Z,78.15
2023-03-06T12:56:57.874Z,78.10
2023-03-06T12:59:44.119Z,77.96
2023-03-06T13:02:09.609Z,78.12
2023-03-06T13:04:48.328Z,78.28
2023-03-06T13:07:16.017Z,78.44
2023-03-06T13:09:58.882Z,77.58
2023-03-06T13:12:17.431Z,77.30
2023-03-06T13:14:42.309Z,77.57
2023-03-06T13:17:25.480Z,77.72
2023-03-06T13:19:37.859Z,77.51
2023-03-06T13:21:56.304Z,77.78
2023-03-06T13:24:19.457Z,77.81
2023-03-06T13:26:32.279Z,77.81
2023-03-06T13:28:50.545Z,78.07
2023-03-06T13:31:02.669Z,78.22
2023-03-06T13:33:26.787Z,77.90
2023-03-06T13:35:41.961Z,78.02
2023-03-06T13:37:55.388Z,77.81
2023-03-06T13:40:11.376Z,78.17
2023-03-06T13:42:37.601Z,78.12
2023-03-06T13:44:52.477Z,78.19
2023-03-06T13:47:08.655Z,78.08
2023-03-06T13:49:23.212Z,78.36
2023-03-06T13:51:37.724Z,78.16
2023-03-06T13:54:14.743Z,78.22
2023-03-06T13:56:39.131Z,78.18
2023-03-06T13:59:18.055Z,77.91
2023-03-06T14:01:44.447Z,77.42
2023-03-06T14:04:33.346Z,76.96
2023-03-06T14:07:08.687Z,77.12
2023-03-06T14:09:30.009Z,77.49
2023-03-06T14:11:52.239Z,77.13
2023-03-06T14:14:04.652Z,77.15
2023-03-06T14:16:25.499Z,76.83
2023-03-06T14:18:43.995Z,76.99
2023-03-06T14:21:22.726Z,76.94
2023-03-06T14:23:42.733Z,77.34
2023-03-06T14:26:20.901Z,76.94
2023-03-06T14:28:34.638Z,77.06
2023-03-06T14:30:54.430Z,76.50
2023-03-06T14:33:11.461Z,76.65
2023-03-06T14:35:32.356Z,76.67
2023-03-06T14:37:48.492Z,76.33
2023-03-06T14:40:00.626Z,76.20
2023-03-06T14:42:19.104Z,76.28
2023-03-06T14:44:31.168Z,76.08
2023-03-06T14:46:43.628Z,76.37
2023-03-06T14:49:01.266Z,76.56
2023-03-06T14:51:52.115Z,76.15
2023-03-06T14:54:04.832Z,76.18
2023-03-06T14:56:20.738Z,75.90
2023-03-06T14:58:45.093Z,75.68
2023-03-06T15:01:02.117Z,75.85
2023-03-06T15:03:21.991Z,76.00
2023-03-06T15:05:33.810Z,75.75
2023-03-06T15:07:45.873Z,76.01
2023-03-06T15:09:58.476Z,76.16
2023-03-06T15:12:25.728Z,75.97
2023-03-06T15:14:40.882Z,76.45
2023-03-06T15:16:52.791Z,76.24
2023-03-06T15:19:05.094Z,76.29
2023-03-06T15:21:22.633Z,75.61
2023-03-06T15:23:40.250Z,75.91
2023-03-06T15:25:55.062Z,76.38
2023-03-06T15:28:54.298Z,76.28
2023-03-06T15:31:23.429Z,75.78
2023-03-06T15:33:36.009Z,75.64
2023-03-06T15:36:02.129Z,75.73
2023-03-06T15:38:44.752Z,75.82
2023-03-06T15:41:00.664Z,75.84
2023-03-06T15:43:12.609Z,75.84
2023-03-06T15:45:27.939Z,75.96
2023-03-06T15:47:40.426Z,75.99
2023-03-06T15:49:53.428Z,75.55
2023-03-06T15:52:07.322Z,75.83
2023-03-06T15:54:19.775Z,75.63
2023-03-06T15:56:35.401Z,76.00
2023-03-06T15:58:47.869Z,75.69
2023-03-06T16:00:59.807Z,75.46
2023-03-06T16:03:12.160Z,75.50
2023-03-06T16:05:24.562Z,75.69
2023-03-06T16:07:36.456Z,75.64
2023-03-06T16:09:49.016Z,75.65
2023-03-06T16:12:01.389Z,75.22
2023-03-06T16:14:21.177Z,75.69
2023-03-06T16:16:34.803Z,75.36
2023-03-06T16:18:46.999Z,75.70
2023-03-06T16:20:59.273Z,75.70
2023-03-06T16:23:11.266Z,75.56
2023-03-06T16:25:26.431Z,75.68
2023-03-06T16:27:39.724Z,75.85
2023-03-06T16:29:53.187Z,75.77
2023-03-06T16:32:05.983Z,75.91
2023-03-06T16:34:19.950Z,76.44
2023-03-06T16:36:31.834Z,76.13
2023-03-06T16:38:45.571Z,76.18
2023-03-06T16:40:57.672Z,76.35
2023-03-06T16:43:10.888Z,76.12
2023-03-06T16:45:24.013Z,76.13
2023-03-06T16:47:36.405Z,76.03
2023-03-06T16:49:48.206Z,76.46
2023-03-06T16:52:00.537Z,76.53
2023-03-06T16:54:12.901Z,76.47
2023-03-06T16:56:24.729Z,76.84
2023-03-06T16:58:36.359Z,76.72
2023-03-06T17:00:47.935Z,76.78
2023-03-06T17:03:01.610Z,76.64
2023-03-06T17:05:13.407Z,76.83
2023-03-06T17:07:25.087Z,76.87
2023-03-06T17:09:37.184Z,77.14
2023-03-06T17:11:49.280Z,77.02
2023-03-06T17:14:02.023Z,76.92
2023-03-06T17:16:16.645Z,76.63
2023-03-06T17:18:30.470Z,76.92
2023-03-06T17:20:49.041Z,77.10
2023-03-06T17:23:01.857Z,77.04
2023-03-06T17:25:14.050Z,76.93
2023-03-06T17:27:25.842Z,76.92
2023-03-06T17:29:37.530Z,77.34
2023-03-06T17:31:49.525Z,77.14
2023-03-06T17:34:01.457Z,77.46
2023-03-06T17:36:14.767Z,77.51
2023-03-06T17:38:27.673Z,77.55
2023-03-06T17:40:39.753Z,78.01
2023-03-06T17:42:51.747Z,77.35
2023-03-06T17:45:05.710Z,77.43
2023-03-06T17:47:17.790Z,77.87
2023-03-06T17:49:30.904Z,77.84
2023-03-06T17:51:42.904Z,77.11
2023-03-06T17:53:55.820Z,77.70
2023-03-06T17:56:41.108Z,77.99
2023-03-06T17:59:02.059Z,77.76
2023-03-06T18:01:20.687Z,77.65
2023-03-06T18:03:32.640Z,77.64
2023-03-06T18:05:46.884Z,77.77
2023-03-06T18:07:58.470Z,77.92
2023-03-06T18:10:13.340Z,77.99
2023-03-06T18:12:26.965Z,78.61
2023-03-06T18:14:40.700Z,78.31
2023-03-06T18:16:53.425Z,77.83
2023-03-06T18:19:05.507Z,78.43
2023-03-06T18:21:17.813Z,78.04
2023-03-06T18:23:30.625Z,77.94
2023-03-06T18:25:43.343Z,78.00
2023-03-06T18:27:55.539Z,78.22
2023-03-06T18:30:08.144Z,78.11
2023-03-06T18:32:31.619Z,77.78
2023-03-06T18:35:50.442Z,78.51
2023-03-06T18:38:11.094Z,78.64
2023-03-06T18:40:47.511Z,78.77
2023-03-06T18:42:59.962Z,78.57
2023-03-06T18:45:19.827Z,78.66
2023-03-06T18:47:35.921Z,78.59
2023-03-06T18:49:48.865Z,78.44
2023-03-06T18:52:04.219Z,78.29
2023-03-06T18:54:17.868Z,78.87
2023-03-06T18:56:35.188Z,78.83
2023-03-06T18:58:50.860Z,79.17
2023-03-06T19:01:07.567Z,78.78
2023-03-06T19:03:20.162Z,78.45
2023-03-06T19:05:32.660Z,78.70
2023-03-06T19:07:48.147Z,78.98
2023-03-06T19:10:04.125Z,79.29
2023-03-06T19:12:17.543Z,79.27
2023-03-06T19:14:30.090Z,79.26
2023-03-06T19:16:42.398Z,79.66
2023-03-06T19:19:25.842Z,79.40
2023-03-06T19:21:36.500Z,79.44
2023-03-06T19:23:48.864Z,79.65
2023-03-06T19:26:01.067Z,79.70
2023-03-06T19:28:13.366Z,79.64
2023-03-06T19:30:25.976Z,79.52
2023-03-06T19:32:38.200Z,79.80
2023-03-06T19:34:50.076Z,79.60
2023-03-06T19:37:01.658Z,80.18
2023-03-06T19:39:14.161Z,79.57
2023-03-06T19:41:27.281Z,79.52
2023-03-06T19:43:40.959Z,79.52
2023-03-06T19:45:52.960Z,79.44
2023-03-06T19:48:07.816Z,79.66
2023-03-06T19:50:33.238Z,79.60
2023-03-06T19:52:46.557Z,79.44
2023-03-06T19:54:58.338Z,79.78
2023-03-06T19:57:10.412Z,79.69
2023-03-06T19:59:28.023Z,79.40
2023-03-06T20:01:40.655Z,79.16
2023-03-06T20:04:00.205Z,79.56
2023-03-06T20:06:15.407Z,79.55
2023-03-06T20:08:27.267Z,79.54
2023-03-06T20:10:40.940Z,79.58
2023-03-06T20:12:53.096Z,79.70
2023-03-06T20:15:06.904Z,79.66
2023-03-06T20:17:19.241Z,79.52
2023-03-06T20:19:31.839Z,79.75
2023-03-06T20:21:44.041Z,79.47
2023-03-06T20:23:58.052Z,79.67
2023-03-06T20:26:12.645Z,79.62
2023-03-06T20:28:24.012Z,79.91
2023-03-06T20:30:38.313Z,80.91
2023-03-06T20:32:51.688Z,80.24
2023-03-06T20:35:05.233Z,80.18
2023-03-06T20:37:16.905Z,80.17
2023-03-06T20:39:29.207Z,80.25
2023-03-06T20:41:42.839Z,80.35
2023-03-06T20:43:54.962Z,80.56
2023-03-06T20:46:07.046Z,80.26
2023-03-06T20:48:19.137Z,80.33
2023-03-06T20:50:30.922Z,80.33
2023-03-06T20:52:42.614Z,80.10
2023-03-06T20:54:54.311Z,80.30
2023-03-06T20:57:06.089Z,80.42
2023-03-06T20:59:18.414Z,80.33
2023-03-06T21:01:33.647Z,80.40
2023-03-06T21:03:46.477Z,80.27
2023-03-06T21:05:58.436Z,80.24
2023-03-06T21:08:10.059Z,80.49
2023-03-06T21:10:22.052Z,80.48
2023-03-06T21:12:33.613Z,80.24
2023-03-06T21:14:46.347Z,80.34
2023-03-06T21:17:01.518Z,80.32
2023-03-06T21:19:13.111Z,80.24
2023-03-06T21:21:28.314Z,80.24
2023-03-06T21:23:43.902Z,80.29
2023-03-06T21:26:02.981Z,80.52
2023-03-06T21:28:15.420Z,80.65
2023-03-06T21:30:29.534Z,80.54
2023-03-06T21:32:41.596Z,80.54
2023-03-06T21:34:53.760Z,80.58
2023-03-06T21:37:05.821Z,80.84
2023-03-06T21:39:18.263Z,80.74
2023-03-06T21:41:32.346Z,80.65
2023-03-06T21:43:45.905Z,80.91
2023-03-06T21:45:59.391Z,80.23
2023-03-06T21:48:11.269Z,80.73
2023-03-06T21:50:27.475Z,80.87
2023-03-06T21:52:39.858Z,80.74
2023-03-06T21:54:51.957Z,80.56
2023-03-06T21:57:03.641Z,80.75
2023-03-06T21:59:15.533Z,80.90
2023-03-06T22:01:29.117Z,80.96
2023-03-06T22:03:40.902Z,80.84
2023-03-06T22:05:52.849Z,80.85
2023-03-06T22:08:05.063Z,80.97
2023-03-06T22:10:16.638Z,81.12
2023-03-06T22:12:28.320Z,80.93
2023-03-06T22:14:40.211Z,81.96
2023-03-06T22:16:52.108Z,82.01
2023-03-06T22:19:04.167Z,81.63
2023-03-06T22:21:18.962Z,81.54
2023-03-06T22:23:31.057Z,80.77
2023-03-06T22:25:43.156Z,80.25
2023-03-06T22:27:55.257Z,79.71
2023-03-06T22:30:08.064Z,80.74
2023-03-06T22:32:20.012Z,81.22
2023-03-06T22:34:32.468Z,81.29
2023-03-06T22:36:44.561Z,81.54
2023-03-06T22:39:02.002Z,82.19
2023-03-06T22:41:16.112Z,82.72
2023-03-06T22:43:28.126Z,83.23
2023-03-06T22:45:39.853Z,83.36
2023-03-06T22:47:55.174Z,83.50
2023-03-06T22:50:10.355Z,84.16
2023-03-06T22:52:21.948Z,83.77
2023-03-06T22:54:34.202Z,83.79
2023-03-06T22:56:45.833Z,83.66
2023-03-06T22:58:58.126Z,83.63
2023-03-06T23:01:15.546Z,84.06
2023-03-06T23:03:27.216Z,83.63
2023-03-06T23:05:43.220Z,83.82
2023-03-06T23:07:55.013Z,84.69
2023-03-06T23:10:07.555Z,84.82
2023-03-06T23:12:38.252Z,86.19
2023-03-06T23:15:10.019Z,86.52
2023-03-06T23:17:40.848Z,86.34
2023-03-06T23:20:13.537Z,86.77
2023-03-06T23:22:44.775Z,85.88
2023-03-06T23:25:16.020Z,86.36
2023-03-06T23:27:29.564Z,86.55
2023-03-06T23:29:41.449Z,87.02
2023-03-06T23:31:53.132Z,87.02
2023-03-06T23:34:06.147Z,87.52
2023-03-06T23:36:19.150Z,86.92
2023-03-06T23:38:31.880Z,86.87
2023-03-06T23:40:44.079Z,86.45
2023-03-06T23:42:55.871Z,86.85
2023-03-06T23:45:08.870Z,86.44
2023-03-06T23:47:20.784Z,87.02
2023-03-06T23:49:32.880Z,86.49
2023-03-06T23:51:44.566Z,87.02
2023-03-06T23:53:59.267Z,86.38
2023-03-06T23:56:12.348Z,86.32
2023-03-06T23:58:23.929Z,86.80
